Time;durP1;ratioP1;P1;durP2;ratioP2;P2;SDS_P1;SDS_P2;PMS_P1;PMS_P2;Temp;Humidity;BMP_temperature;BMP_pressure;BME280_temperature;BME280_humidity;BME280_pressure;Samples;Min_cycle;Max_cycle;Signal;HPM_P1;HPM_P2
2022/07/25 00:00:24;;;;;;;4.65;4.25;;;26.50;99.90;;;;;;5097289;28;20212;-78
2022/07/25 00:02:52;;;;;;;5.40;4.90;;;26.50;99.90;;;;;;5093586;27;20225;-77
2022/07/25 00:05:19;;;;;;;4.85;4.45;;;26.40;99.90;;;;;;5097597;28;20190;-77
2022/07/25 00:07:46;;;;;;;4.70;4.32;;;26.40;99.90;;;;;;5095838;27;20297;-76
2022/07/25 00:10:13;;;;;;;4.75;4.22;;;26.30;99.90;;;;;;5098654;28;20233;-76
2022/07/25 00:12:40;;;;;;;5.47;4.57;;;26.30;99.90;;;;;;5097590;27;20217;-77
2022/07/25 00:15:08;;;;;;;4.28;3.88;;;26.30;99.90;;;;;;5100659;27;20979;-74
2022/07/25 00:17:37;;;;;;;4.38;4.07;;;26.30;99.90;;;;;;5101365;27;20220;-74
2022/07/25 00:20:06;;;;;;;4.10;3.80;;;26.30;99.90;;;;;;5099851;27;20830;-76
2022/07/25 00:22:33;;;;;;;4.85;3.90;;;26.30;99.90;;;;;;5093461;27;20222;-74
2022/07/25 00:25:00;;;;;;;4.38;3.97;;;26.20;99.90;;;;;;5105998;27;20579;-76
2022/07/25 00:27:27;;;;;;;4.45;4.05;;;26.20;99.90;;;;;;5104044;27;20232;-78
2022/07/25 00:29:54;;;;;;;4.10;3.80;;;26.20;99.90;;;;;;5108619;27;20213;-76
2022/07/25 00:32:22;;;;;;;4.70;4.30;;;26.20;99.90;;;;;;5103318;27;20213;-75
2022/07/25 00:34:50;;;;;;;4.70;4.13;;;26.20;99.90;;;;;;5099279;28;20224;-76
2022/07/25 00:37:17;;;;;;;4.88;3.90;;;26.20;99.90;;;;;;5102910;27;20600;-77
2022/07/25 00:39:44;;;;;;;4.63;4.18;;;26.20;99.90;;;;;;5100513;27;20213;-74
2022/07/25 00:42:11;;;;;;;4.57;4.20;;;26.20;99.90;;;;;;5105198;27;20236;-76
2022/07/25 00:44:39;;;;;;;4.00;3.70;;;26.20;99.90;;;;;;5101642;27;20193;-75
2022/07/25 00:47:06;;;;;;;4.70;4.35;;;26.20;99.90;;;;;;5105644;27;20225;-76
2022/07/25 00:49:33;;;;;;;4.10;3.75;;;26.20;99.90;;;;;;5104553;27;20250;-75
2022/07/25 00:52:02;;;;;;;3.85;3.58;;;26.20;99.90;;;;;;5099401;27;20624;-75
2022/07/25 00:54:29;;;;;;;4.30;3.90;;;26.20;99.90;;;;;;5097798;27;20220;-77
2022/07/25 00:56:56;;;;;;;4.90;4.35;;;26.10;99.90;;;;;;5099866;27;20197;-76
2022/07/25 00:59:23;;;;;;;4.53;4.22;;;26.10;99.90;;;;;;5110044;27;20227;-75
2022/07/25 01:01:50;;;;;;;4.50;4.20;;;26.10;99.90;;;;;;5099131;27;20202;-76
2022/07/25 01:04:18;;;;;;;4.47;4.18;;;26.00;99.90;;;;;;5097325;27;20458;-76
2022/07/25 01:06:45;;;;;;;4.07;3.80;;;26.00;99.90;;;;;;5101104;27;20651;-74
2022/07/25 01:09:14;;;;;;;4.35;4.05;;;26.00;99.90;;;;;;5099106;27;20219;-76
2022/07/25 01:11:41;;;;;;;4.30;4.00;;;26.00;99.90;;;;;;5106689;27;20189;-76
2022/07/25 01:14:08;;;;;;;4.78;4.47;;;26.00;99.90;;;;;;5096547;27;20253;-75
2022/07/25 01:16:36;;;;;;;4.20;3.90;;;26.00;99.90;;;;;;5100140;27;20651;-77
2022/07/25 01:19:03;;;;;;;5.13;4.72;;;26.00;99.90;;;;;;5099152;27;20217;-76
2022/07/25 01:21:32;;;;;;;4.57;4.28;;;25.90;99.90;;;;;;5095880;27;20206;-74
2022/07/25 01:23:59;;;;;;;4.60;4.18;;;25.90;99.90;;;;;;5094636;28;20721;-74
2022/07/25 01:26:26;;;;;;;4.97;4.50;;;25.90;99.90;;;;;;5098423;27;20193;-75
2022/07/25 01:28:53;;;;;;;5.07;4.57;;;25.80;99.90;;;;;;5101763;27;20220;-78
2022/07/25 01:31:20;;;;;;;5.15;4.75;;;25.80;99.90;;;;;;5101939;27;20192;-75
2022/07/25 01:33:48;;;;;;;5.00;4.60;;;25.70;99.90;;;;;;5102385;27;20221;-77
2022/07/25 01:36:15;;;;;;;4.93;4.53;;;25.60;99.90;;;;;;5102656;27;20209;-76
2022/07/25 01:38:43;;;;;;;5.28;4.88;;;25.50;99.90;;;;;;5104517;27;20212;-75
2022/07/25 01:41:10;;;;;;;4.97;4.57;;;25.40;99.90;;;;;;5092298;27;20286;-76
2022/07/25 01:43:37;;;;;;;5.30;4.80;;;25.40;99.90;;;;;;5107733;27;20606;-77
2022/07/25 01:46:04;;;;;;;5.00;4.65;;;25.50;99.90;;;;;;5098427;27;20189;-75
2022/07/25 01:48:31;;;;;;;4.93;4.57;;;25.40;99.90;;;;;;5097761;27;20214;-75
2022/07/25 01:50:59;;;;;;;4.65;4.35;;;25.40;99.90;;;;;;5101710;27;20605;-75
2022/07/25 01:53:26;;;;;;;5.30;4.90;;;25.40;99.90;;;;;;5109559;27;20217;-75
2022/07/25 01:55:54;;;;;;;5.13;4.82;;;25.40;99.90;;;;;;5105236;27;20739;-77
2022/07/25 01:58:21;;;;;;;5.07;4.68;;;25.40;99.90;;;;;;5101818;27;20216;-74
2022/07/25 02:00:48;;;;;;;5.05;4.68;;;25.30;99.90;;;;;;5098719;27;20193;-71
2022/07/25 02:03:30;;;;;;;5.43;5.03;;;25.30;99.90;;;;;;5108011;27;20217;-74
2022/07/25 02:05:58;;;;;;;5.13;4.78;;;25.30;99.90;;;;;;5099296;27;20204;-74
2022/07/25 02:08:25;;;;;;;5.05;4.75;;;25.30;99.90;;;;;;5104754;27;20224;-74
2022/07/25 02:10:55;;;;;;;4.90;4.57;;;25.30;99.90;;;;;;5104974;27;20682;-75
2022/07/25 02:13:22;;;;;;;5.50;5.10;;;25.30;99.90;;;;;;5102930;27;20209;-73
2022/07/25 02:15:49;;;;;;;5.22;4.82;;;25.30;99.90;;;;;;5103922;27;20262;-74
2022/07/25 02:18:19;;;;;;;4.78;4.47;;;25.30;99.90;;;;;;5102693;27;20690;-74
2022/07/25 02:20:46;;;;;;;4.80;4.40;;;25.30;99.90;;;;;;5107158;27;20228;-75
2022/07/25 02:23:13;;;;;;;5.63;5.13;;;25.30;99.90;;;;;;5103561;27;20216;-74
2022/07/25 02:25:40;;;;;;;5.13;4.63;;;25.30;99.90;;;;;;5102231;27;20681;-75
2022/07/25 02:28:09;;;;;;;5.07;4.70;;;25.30;99.90;;;;;;5100795;27;20216;-77
2022/07/25 02:30:36;;;;;;;6.07;5.57;;;25.30;99.90;;;;;;5099369;27;20208;-76
2022/07/25 02:33:03;;;;;;;5.55;5.05;;;25.30;99.90;;;;;;5097786;27;20222;-76
2022/07/25 02:35:30;;;;;;;5.32;4.93;;;25.30;99.90;;;;;;5102156;27;20219;-75
2022/07/25 02:37:57;;;;;;;5.00;4.60;;;25.30;99.90;;;;;;5098688;27;20225;-75
2022/07/25 02:40:25;;;;;;;4.95;4.55;;;25.30;99.90;;;;;;5100023;28;20590;-76
2022/07/25 02:42:52;;;;;;;4.90;4.50;;;25.30;99.90;;;;;;5094582;27;20304;-75
2022/07/25 02:45:20;;;;;;;4.80;4.40;;;25.30;99.90;;;;;;5102388;27;20195;-75
2022/07/25 02:47:48;;;;;;;5.03;4.63;;;25.20;99.90;;;;;;5097113;27;20217;-74
2022/07/25 02:50:15;;;;;;;5.70;5.20;;;25.20;99.90;;;;;;5098889;27;20213;-74
2022/07/25 02:52:42;;;;;;;4.63;4.32;;;25.20;99.90;;;;;;5095166;27;20304;-74
2022/07/25 02:55:10;;;;;;;4.32;4.03;;;25.20;99.90;;;;;;5100381;27;20322;-75
2022/07/25 02:57:38;;;;;;;4.90;4.50;;;25.20;99.90;;;;;;5101777;27;20759;-74
2022/07/25 03:00:07;;;;;;;5.80;5.30;;;25.20;99.90;;;;;;5097180;28;20213;-75
2022/07/25 03:02:35;;;;;;;4.82;4.40;;;25.20;99.90;;;;;;5102471;28;20217;-74
2022/07/25 03:05:05;;;;;;;4.88;4.55;;;25.20;99.90;;;;;;5099412;28;20554;-75
2022/07/25 03:07:32;;;;;;;4.43;4.13;;;25.20;99.90;;;;;;5103386;27;20237;-73
2022/07/25 03:09:59;;;;;;;4.60;4.20;;;25.20;99.90;;;;;;5101373;28;20229;-72
2022/07/25 03:12:26;;;;;;;5.85;4.50;;;25.20;99.90;;;;;;5097615;27;20217;-75
2022/07/25 03:14:53;;;;;;;5.10;4.70;;;25.20;99.90;;;;;;5100094;28;20217;-75
2022/07/25 03:17:20;;;;;;;5.10;4.70;;;25.20;99.90;;;;;;5102314;27;20441;-74
2022/07/25 03:19:49;;;;;;;5.10;4.70;;;25.30;99.90;;;;;;5102378;28;20215;-72
2022/07/25 03:22:16;;;;;;;4.80;4.40;;;25.20;99.90;;;;;;5109733;27;20721;-76
2022/07/25 03:24:43;;;;;;;4.32;4.03;;;25.20;99.90;;;;;;5106865;28;20201;-75
2022/07/25 03:27:10;;;;;;;4.90;4.40;;;25.20;99.90;;;;;;5111909;27;20594;-74
2022/07/25 03:29:38;;;;;;;5.05;4.68;;;25.20;99.90;;;;;;5107041;28;20630;-76
2022/07/25 03:32:06;;;;;;;4.93;4.53;;;25.20;99.90;;;;;;5109172;27;20724;-75
2022/07/25 03:34:33;;;;;;;5.15;4.75;;;25.20;99.90;;;;;;5101112;28;20201;-74
2022/07/25 03:37:02;;;;;;;5.03;4.63;;;25.20;99.90;;;;;;5108736;27;20279;-73
2022/07/25 03:39:30;;;;;;;4.75;4.43;;;25.20;99.90;;;;;;5099525;28;20228;-75
2022/07/25 03:41:57;;;;;;;4.47;4.18;;;25.20;99.90;;;;;;5109473;27;20837;-72
2022/07/25 03:44:26;;;;;;;5.20;4.80;;;25.20;99.90;;;;;;5099006;27;20205;-76
2022/07/25 03:46:53;;;;;;;4.88;4.47;;;25.20;99.90;;;;;;5098363;27;20194;-74
2022/07/25 03:49:20;;;;;;;4.80;4.40;;;25.10;99.90;;;;;;5102639;27;20706;-72
2022/07/25 03:51:47;;;;;;;4.75;4.43;;;25.10;99.90;;;;;;5109753;27;20201;-76
2022/07/25 03:54:15;;;;;;;5.43;4.72;;;25.10;99.90;;;;;;5115030;27;20200;-75
2022/07/25 03:56:45;;;;;;;4.97;4.57;;;25.10;99.90;;;;;;5104761;27;20221;-75
2022/07/25 03:59:15;;;;;;;4.65;4.35;;;25.10;99.90;;;;;;5110512;27;20224;-73
2022/07/25 04:01:43;;;;;;;5.35;4.95;;;25.10;99.90;;;;;;5100788;27;20201;-74
2022/07/25 04:04:10;;;;;;;5.03;4.63;;;25.00;99.90;;;;;;5110689;27;20667;-74
2022/07/25 04:06:38;;;;;;;4.68;4.38;;;25.00;99.90;;;;;;5099868;27;20208;-74
2022/07/25 04:09:06;;;;;;;5.00;4.60;;;25.00;99.90;;;;;;5103992;27;20220;-74
2022/07/25 04:11:34;;;;;;;4.90;4.60;;;25.10;99.90;;;;;;5100584;27;20200;-73
2022/07/25 04:14:02;;;;;;;5.80;5.38;;;25.00;99.90;;;;;;5097801;27;20212;-73
2022/07/25 04:16:29;;;;;;;5.13;4.80;;;25.00;99.90;;;;;;5100275;27;20693;-74
2022/07/25 04:18:57;;;;;;;4.97;4.65;;;25.00;99.90;;;;;;5106852;27;20311;-74
2022/07/25 04:21:24;;;;;;;4.95;4.65;;;25.00;99.90;;;;;;5107043;27;20261;-73
2022/07/25 04:23:52;;;;;;;5.30;4.90;;;25.00;99.90;;;;;;5105442;27;20217;-74
2022/07/25 04:26:19;;;;;;;5.25;4.85;;;25.00;99.90;;;;;;5108576;27;20246;-74
2022/07/25 04:28:48;;;;;;;4.72;4.43;;;25.00;99.90;;;;;;5103880;27;20229;-75
2022/07/25 04:31:15;;;;;;;5.47;5.07;;;25.00;99.90;;;;;;5114222;27;20230;-74
2022/07/25 04:33:43;;;;;;;4.95;4.65;;;25.10;99.90;;;;;;5103740;27;20217;-75
2022/07/25 04:36:10;;;;;;;5.15;4.65;;;25.10;99.90;;;;;;5104358;27;20725;-75
2022/07/25 04:38:37;;;;;;;4.93;4.63;;;25.20;99.90;;;;;;5103050;27;20224;-75
2022/07/25 04:41:04;;;;;;;4.78;4.47;;;25.20;99.90;;;;;;5102523;27;20188;-76
2022/07/25 04:43:31;;;;;;;4.97;4.50;;;25.20;99.90;;;;;;5104777;27;20216;-75
2022/07/25 04:46:00;;;;;;;5.07;4.68;;;25.20;99.90;;;;;;5103763;27;20197;-75
2022/07/25 04:48:27;;;;;;;4.97;4.57;;;25.20;99.90;;;;;;5106664;27;20297;-73
2022/07/25 04:50:54;;;;;;;5.15;4.75;;;25.20;99.90;;;;;;5098215;27;20200;-76
2022/07/25 04:53:22;;;;;;;5.20;4.70;;;25.10;99.90;;;;;;5105916;27;20734;-75
2022/07/25 04:55:49;;;;;;;4.88;4.47;;;25.10;99.90;;;;;;5103411;27;20217;-76
2022/07/25 04:58:16;;;;;;;5.78;5.38;;;25.20;99.90;;;;;;5114349;27;20215;-74
2022/07/25 05:00:43;;;;;;;5.47;5.07;;;25.20;99.90;;;;;;5111841;27;20223;-75
2022/07/25 05:03:12;;;;;;;5.20;4.82;;;25.10;99.90;;;;;;5109976;27;20213;-75
2022/07/25 05:05:39;;;;;;;5.70;5.20;;;25.20;99.90;;;;;;5103693;27;20201;-74
2022/07/25 05:08:06;;;;;;;5.70;5.20;;;25.30;99.90;;;;;;5103337;27;20209;-75
2022/07/25 05:10:33;;;;;;;5.60;5.20;;;25.50;99.90;;;;;;5112471;27;20270;-75
2022/07/25 05:13:00;;;;;;;5.03;4.63;;;25.50;99.90;;;;;;5112269;27;20227;-78
2022/07/25 05:15:27;;;;;;;5.82;5.43;;;25.70;99.90;;;;;;5111486;27;20227;-75
2022/07/25 05:17:54;;;;;;;5.57;5.07;;;25.80;99.90;;;;;;5104760;27;20611;-76
2022/07/25 05:20:23;;;;;;;4.97;4.57;;;25.90;99.90;;;;;;5115813;27;20227;-75
2022/07/25 05:22:50;;;;;;;6.32;5.82;;;26.00;99.90;;;;;;5110865;27;20737;-76
2022/07/25 05:25:18;;;;;;;6.55;5.93;;;26.10;99.90;;;;;;5113705;27;20675;-75
2022/07/25 05:27:45;;;;;;;6.82;6.22;;;26.10;99.90;;;;;;5109968;27;20220;-75
2022/07/25 05:30:14;;;;;;;6.07;5.57;;;26.30;99.90;;;;;;5102625;27;20221;-76
2022/07/25 05:32:42;;;;;;;7.35;6.75;;;26.40;99.90;;;;;;5109598;27;20580;-77
2022/07/25 05:35:10;;;;;;;6.72;6.13;;;26.40;99.90;;;;;;5108388;27;20190;-75
2022/07/25 05:37:38;;;;;;;6.55;6.07;;;26.50;99.90;;;;;;5111508;27;20217;-77
2022/07/25 05:40:07;;;;;;;6.85;6.10;;;26.60;99.90;;;;;;5108152;27;20713;-76
2022/07/25 05:42:35;;;;;;;6.75;6.25;;;26.70;99.90;;;;;;5098831;27;20224;-75
2022/07/25 05:45:02;;;;;;;6.43;5.93;;;26.80;99.90;;;;;;5097688;28;20188;-77
2022/07/25 05:47:29;;;;;;;7.25;6.75;;;26.90;99.90;;;;;;5117266;27;20212;-77
2022/07/25 05:49:56;;;;;;;8.07;7.30;;;26.90;99.90;;;;;;5111277;27;20219;-72
2022/07/25 05:52:23;;;;;;;7.40;6.80;;;26.90;99.90;;;;;;5107646;27;20228;-76
2022/07/25 05:54:52;;;;;;;7.60;7.00;;;26.90;99.90;;;;;;5110781;27;20694;-77
2022/07/25 05:57:19;;;;;;;7.30;6.70;;;26.90;99.90;;;;;;5104840;27;20228;-75
2022/07/25 05:59:46;;;;;;;7.97;7.35;;;26.90;99.90;;;;;;5101153;27;20588;-76
2022/07/25 06:02:13;;;;;;;7.63;7.03;;;26.90;99.90;;;;;;5104021;27;20224;-76
2022/07/25 06:04:40;;;;;;;7.97;7.30;;;26.90;99.90;;;;;;5104319;27;20216;-76
2022/07/25 06:07:07;;;;;;;7.80;7.00;;;27.00;99.90;;;;;;5095216;27;20221;-81
2022/07/25 06:09:34;;;;;;;8.20;7.45;;;27.10;99.90;;;;;;5102123;28;20225;-75
2022/07/25 06:12:03;;;;;;;7.93;7.32;;;27.20;99.90;;;;;;5108359;27;20201;-76
2022/07/25 06:14:30;;;;;;;8.25;7.65;;;27.20;99.90;;;;;;5108620;27;20575;-76
2022/07/25 06:16:57;;;;;;;7.35;6.78;;;27.30;99.90;;;;;;5105864;27;20224;-75
2022/07/25 06:19:25;;;;;;;8.02;7.25;;;27.40;99.90;;;;;;5103056;27;20220;-75
2022/07/25 06:21:52;;;;;;;9.00;8.10;;;27.40;99.90;;;;;;5096124;27;20202;-78
2022/07/25 06:24:19;;;;;;;8.68;7.88;;;27.60;99.90;;;;;;5098931;27;20202;-77
2022/07/25 06:26:46;;;;;;;8.23;7.53;;;27.70;99.90;;;;;;5100879;27;20645;-76
2022/07/25 06:29:15;;;;;;;8.43;7.43;;;27.80;99.90;;;;;;5109845;27;21138;-79
2022/07/25 06:31:42;;;;;;;9.00;8.20;;;27.90;99.90;;;;;;5108961;27;20906;-78
2022/07/25 06:34:09;;;;;;;8.90;8.20;;;27.80;99.90;;;;;;5104945;27;20208;-82
2022/07/25 06:36:36;;;;;;;9.20;8.32;;;27.80;99.90;;;;;;5096358;27;20224;-77
2022/07/25 06:39:03;;;;;;;10.20;9.20;;;27.70;99.90;;;;;;5100116;27;20220;-79
2022/07/25 06:41:30;;;;;;;10.27;9.45;;;27.70;99.90;;;;;;5102781;27;20202;-80
2022/07/25 06:43:57;;;;;;;10.02;9.20;;;27.70;99.90;;;;;;5098128;27;20224;-79
2022/07/25 06:46:29;;;;;;;10.38;8.98;;;27.60;99.90;;;;;;5103557;27;20185;-76
2022/07/25 06:48:56;;;;;;;9.25;8.55;;;27.70;99.90;;;;;;5097924;27;20221;-75
2022/07/25 06:51:24;;;;;;;8.32;7.72;;;27.80;99.90;;;;;;5096011;27;20215;-77
2022/07/25 06:53:51;;;;;;;9.93;9.13;;;28.00;99.90;;;;;;5106077;27;20410;-76
2022/07/25 06:56:19;;;;;;;9.45;8.60;;;28.30;99.90;;;;;;5104386;27;20209;-79
2022/07/25 06:58:47;;;;;;;8.48;7.72;;;28.50;99.90;;;;;;5099618;27;20224;-73
2022/07/25 07:01:14;;;;;;;9.65;8.85;;;28.60;99.90;;;;;;5100710;28;20195;-79
2022/07/25 07:03:42;;;;;;;9.80;9.00;;;28.60;99.90;;;;;;5102970;27;20219;-77
2022/07/25 07:06:09;;;;;;;8.85;8.15;;;28.70;99.90;;;;;;5095271;28;20241;-79
2022/07/25 07:08:37;;;;;;;9.32;8.45;;;28.90;99.90;;;;;;5099312;27;21558;-78
2022/07/25 07:11:04;;;;;;;9.38;8.52;;;29.00;99.90;;;;;;5096835;28;20776;-77
2022/07/25 07:13:31;;;;;;;9.48;8.68;;;29.00;99.90;;;;;;5102986;27;20223;-76
2022/07/25 07:15:58;;;;;;;10.02;9.20;;;29.00;99.90;;;;;;5104816;28;20200;-77
2022/07/25 07:18:26;;;;;;;8.45;7.85;;;29.00;99.90;;;;;;5104123;28;20225;-78
2022/07/25 07:20:54;;;;;;;8.77;8.05;;;29.10;99.90;;;;;;5100072;28;20197;-78
2022/07/25 07:23:24;;;;;;;10.13;9.23;;;29.20;99.90;;;;;;5101001;27;20209;-78
2022/07/25 07:25:51;;;;;;;9.85;9.05;;;29.30;99.90;;;;;;5105674;27;20710;-79
2022/07/25 07:28:20;;;;;;;9.93;9.13;;;29.30;99.90;;;;;;5095703;27;20213;-82
2022/07/25 07:30:47;;;;;;;9.93;9.05;;;29.40;99.90;;;;;;5103616;27;20189;-77
2022/07/25 07:33:14;;;;;;;9.68;8.82;;;29.40;99.90;;;;;;5109587;27;20227;-79
2022/07/25 07:35:44;;;;;;;8.65;7.90;;;29.60;99.90;;;;;;5103228;27;20212;-77
2022/07/25 07:38:12;;;;;;;8.75;8.15;;;29.50;99.90;;;;;;5105540;27;20220;-79
2022/07/25 07:40:39;;;;;;;9.88;9.05;;;29.60;99.90;;;;;;5102045;27;20212;-77
2022/07/25 07:43:06;;;;;;;10.27;9.48;;;29.60;99.90;;;;;;5103527;27;20678;-77
2022/07/25 07:45:36;;;;;;;9.77;8.93;;;29.60;99.90;;;;;;5103425;27;20194;-76
2022/07/25 07:48:04;;;;;;;9.55;8.85;;;29.60;99.90;;;;;;5099976;27;20223;-78
2022/07/25 07:50:31;;;;;;;10.05;9.20;;;29.70;99.90;;;;;;5100040;27;20220;-78
2022/07/25 07:52:58;;;;;;;9.20;8.50;;;29.90;99.90;;;;;;5098655;27;20224;-78
2022/07/25 07:55:45;;;;;;;9.40;8.65;;;30.00;99.90;;;;;;5103641;27;20824;-79
2022/07/25 07:58:14;;;;;;;9.50;8.75;;;30.20;99.90;;;;;;5099085;27;20592;-79
2022/07/25 08:00:42;;;;;;;9.90;9.00;;;30.20;99.90;;;;;;5103962;27;20233;-81
2022/07/25 08:03:09;;;;;;;10.38;9.40;;;30.10;99.90;;;;;;5106623;27;20211;-83
2022/07/25 08:05:39;;;;;;;8.63;7.95;;;30.10;99.90;;;;;;5111825;27;20197;-80
2022/07/25 08:08:07;;;;;;;10.18;9.27;;;30.20;99.90;;;;;;5102293;27;20699;-85
2022/07/25 08:10:38;;;;;;;9.82;9.02;;;30.30;99.90;;;;;;5107005;27;20208;-83
2022/07/25 08:13:14;;;;;;;9.85;8.95;;;30.30;99.90;;;;;;5100731;27;20219;-84
2022/07/25 08:15:44;;;;;;;9.93;9.13;;;30.40;99.90;;;;;;5112292;27;20208;-80
2022/07/25 08:18:11;;;;;;;9.60;8.80;;;30.40;99.90;;;;;;5094354;27;20218;-82
2022/07/25 08:20:38;;;;;;;9.02;8.23;;;30.50;99.90;;;;;;5089128;28;20276;-83
2022/07/25 08:23:06;;;;;;;10.30;9.40;;;30.60;99.90;;;;;;5079457;28;20312;-81
2022/07/25 08:25:33;;;;;;;10.02;9.25;;;30.70;99.90;;;;;;5080289;28;20193;-83
2022/07/25 08:28:01;;;;;;;8.90;8.27;;;30.70;99.90;;;;;;5081559;28;20213;-80
2022/07/25 08:30:29;;;;;;;9.77;8.98;;;30.90;99.90;;;;;;5081292;28;20222;-75
2022/07/25 08:32:58;;;;;;;9.85;8.95;;;30.90;99.90;;;;;;5089567;27;20225;-81
2022/07/25 08:35:27;;;;;;;9.25;8.45;;;30.90;99.90;;;;;;5084377;28;20711;-84
2022/07/25 08:37:55;;;;;;;10.95;9.95;;;31.00;99.90;;;;;;5085920;28;20233;-83
2022/07/25 08:40:24;;;;;;;10.15;9.35;;;31.20;99.90;;;;;;5085951;28;20213;-80
2022/07/25 08:42:53;;;;;;;9.55;8.73;;;31.20;99.90;;;;;;5086318;28;20822;-80
2022/07/25 08:45:23;;;;;;;10.07;9.18;;;31.30;99.90;;;;;;5078050;28;20198;-80
2022/07/25 08:47:53;;;;;;;9.68;8.77;;;31.50;99.90;;;;;;5085180;28;20245;-83
2022/07/25 08:50:23;;;;;;;8.80;8.10;;;31.70;99.90;;;;;;5080093;28;20213;-81
2022/07/25 08:52:51;;;;;;;9.40;8.65;;;31.80;99.90;;;;;;5088481;28;20213;-81
2022/07/25 08:55:20;;;;;;;9.85;8.88;;;31.90;99.90;;;;;;5081777;28;20202;-81
2022/07/25 08:57:48;;;;;;;9.88;9.00;;;31.80;99.90;;;;;;5081604;28;20234;-84
2022/07/25 09:00:20;;;;;;;9.45;8.65;;;31.90;99.90;;;;;;5077003;28;20961;-80
2022/07/25 09:02:53;;;;;;;9.05;8.35;;;32.00;99.90;;;;;;5082415;28;20221;-77
2022/07/25 09:05:21;;;;;;;9.10;8.40;;;32.00;99.90;;;;;;5074703;28;20194;-76
2022/07/25 09:07:49;;;;;;;8.07;7.47;;;32.00;99.90;;;;;;5070233;28;20279;-76
2022/07/25 09:10:20;;;;;;;8.00;7.40;;;32.20;99.90;;;;;;5076671;28;20312;-77
2022/07/25 09:12:55;;;;;;;9.25;8.45;;;32.30;99.90;;;;;;5076156;28;20240;-77
2022/07/25 09:15:28;;;;;;;8.60;7.80;;;32.40;99.90;;;;;;5071478;28;20197;-77
2022/07/25 09:17:57;;;;;;;9.00;8.20;;;32.40;99.90;;;;;;5073883;28;20597;-76
2022/07/25 09:20:36;;;;;;;9.02;8.32;;;32.60;99.90;;;;;;5075611;28;20214;-78
2022/07/25 09:23:03;;;;;;;8.73;8.02;;;32.60;99.90;;;;;;5076042;28;20217;-78
2022/07/25 09:25:30;;;;;;;8.82;7.82;;;32.70;99.90;;;;;;5072887;28;20201;-78
2022/07/25 09:28:10;;;;;;;9.00;8.30;;;32.80;99.90;;;;;;5079133;28;20226;-78
2022/07/25 09:30:38;;;;;;;8.45;7.75;;;32.80;99.90;;;;;;5072029;28;20221;-82
2022/07/25 09:33:09;;;;;;;9.13;8.32;;;33.00;99.90;;;;;;5068260;28;20217;-80
2022/07/25 09:35:39;;;;;;;9.30;8.60;;;33.10;99.90;;;;;;5072053;28;20232;-78
2022/07/25 09:38:13;;;;;;;9.25;8.43;;;33.10;99.90;;;;;;5078755;28;20221;-77
2022/07/25 09:40:41;;;;;;;8.30;7.70;;;33.10;99.90;;;;;;5070514;28;20221;-76
2022/07/25 09:43:08;;;;;;;8.23;7.63;;;33.10;99.90;;;;;;5071459;28;20214;-77
2022/07/25 09:45:36;;;;;;;8.55;7.93;;;33.30;99.90;;;;;;5070709;28;20202;-76
2022/07/25 09:48:06;;;;;;;8.38;7.70;;;33.40;99.90;;;;;;5073895;28;20224;-77
2022/07/25 09:50:33;;;;;;;8.57;7.78;;;33.40;99.90;;;;;;5077003;28;20214;-77
2022/07/25 09:53:02;;;;;;;7.82;7.22;;;33.50;99.90;;;;;;5077736;28;20229;-76
2022/07/25 09:55:30;;;;;;;7.70;7.10;;;33.50;99.90;;;;;;5076171;28;20254;-77
2022/07/25 09:57:57;;;;;;;7.78;7.07;;;33.70;99.90;;;;;;5072778;28;20903;-77
2022/07/25 10:00:27;;;;;;;7.80;7.20;;;33.70;99.90;;;;;;5074827;28;20612;-76
2022/07/25 10:03:16;;;;;;;8.45;7.85;;;33.70;99.90;;;;;;5066891;28;20329;-77
2022/07/25 10:06:05;;;;;;;7.40;6.78;;;33.60;99.90;;;;;;5074796;28;20201;-80
2022/07/25 10:08:36;;;;;;;7.90;7.30;;;33.70;99.90;;;;;;5071398;28;20213;-79
2022/07/25 10:11:05;;;;;;;7.18;6.68;;;33.90;99.90;;;;;;5068065;28;20206;-77
2022/07/25 10:13:34;;;;;;;7.32;6.78;;;34.00;99.90;;;;;;5075791;28;20270;-76
2022/07/25 10:16:01;;;;;;;8.70;7.85;;;34.10;99.90;;;;;;5069205;28;20202;-73
2022/07/25 10:18:32;;;;;;;8.90;8.18;;;34.30;99.90;;;;;;5074297;28;20666;-73
2022/07/25 10:21:09;;;;;;;7.88;7.28;;;34.10;99.90;;;;;;5081042;28;20198;-78
2022/07/25 10:23:36;;;;;;;8.07;7.47;;;34.10;99.90;;;;;;5065984;28;20224;-77
2022/07/25 10:26:08;;;;;;;7.75;7.00;;;34.00;99.90;;;;;;5068483;28;20205;-77
2022/07/25 10:28:42;;;;;;;7.53;6.93;;;34.00;99.90;;;;;;5078276;28;20714;-79
2022/07/25 10:31:17;;;;;;;8.63;7.82;;;34.10;99.90;;;;;;5065570;28;20201;-80
2022/07/25 10:33:48;;;;;;;7.45;6.75;;;34.30;99.90;;;;;;5068014;28;20224;-75
2022/07/25 10:36:16;;;;;;;7.40;6.80;;;34.60;99.90;;;;;;5071450;28;20285;-80
2022/07/25 10:38:45;;;;;;;8.15;7.45;;;34.80;99.90;;;;;;5070430;28;20221;-76
2022/07/25 10:41:12;;;;;;;7.90;7.30;;;34.90;99.90;;;;;;5071083;28;20722;-80
2022/07/25 10:43:40;;;;;;;7.22;6.63;;;34.70;99.90;;;;;;5074190;28;20228;-76
2022/07/25 10:46:21;;;;;;;7.55;6.97;;;34.70;99.90;;;;;;5076127;28;20212;-77
2022/07/25 10:49:00;;;;;;;7.43;6.72;;;34.80;99.90;;;;;;5068209;28;20283;-75
2022/07/25 10:51:28;;;;;;;11.70;7.13;;;34.80;99.90;;;;;;5068409;28;20306;-75
2022/07/25 10:53:56;;;;;;;7.57;6.97;;;34.80;99.90;;;;;;5065569;28;20589;-71
2022/07/25 10:56:26;;;;;;;7.80;7.10;;;34.90;99.90;;;;;;5067556;28;20193;-75
2022/07/25 10:58:55;;;;;;;6.93;6.43;;;34.90;99.90;;;;;;5073034;28;20270;-78
2022/07/25 11:01:25;;;;;;;7.32;6.75;;;34.80;99.90;;;;;;5075518;28;20205;-77
2022/07/25 11:03:54;;;;;;;7.85;6.97;;;34.90;99.90;;;;;;5077423;28;20213;-78
2022/07/25 11:06:36;;;;;;;7.10;6.60;;;34.90;99.90;;;;;;5069147;28;20614;-78
2022/07/25 11:09:13;;;;;;;8.43;7.25;;;35.10;99.90;;;;;;5077886;28;20774;-78
2022/07/25 11:11:46;;;;;;;8.95;7.07;;;35.10;99.90;;;;;;5079532;28;20203;-74
2022/07/25 11:14:21;;;;;;;7.47;6.75;;;35.30;99.90;;;;;;5082236;28;20313;-77
2022/07/25 11:16:50;;;;;;;6.82;6.22;;;35.30;99.90;;;;;;5072580;28;20884;-76
2022/07/25 11:19:20;;;;;;;7.22;6.63;;;35.50;99.90;;;;;;5089222;28;20244;-81
2022/07/25 11:21:51;;;;;;;6.55;6.05;;;35.60;99.90;;;;;;5084795;28;20679;-80
2022/07/25 11:24:19;;;;;;;7.32;6.63;;;35.90;99.90;;;;;;5110692;27;20497;-81
2022/07/25 11:26:48;;;;;;;7.25;6.65;;;36.00;99.90;;;;;;5095005;27;20459;-79
2022/07/25 11:29:22;;;;;;;7.40;6.63;;;36.00;99.80;;;;;;5100219;28;20209;-82
2022/07/25 11:31:55;;;;;;;7.07;6.38;;;35.90;98.70;;;;;;5090542;28;20198;-79
2022/07/25 11:34:26;;;;;;;6.68;5.93;;;36.10;99.50;;;;;;5089317;28;20200;-77
2022/07/25 11:36:57;;;;;;;7.70;6.85;;;36.20;98.80;;;;;;5091347;27;20200;-76
2022/07/25 11:39:26;;;;;;;7.10;6.40;;;36.20;99.10;;;;;;5091722;28;20217;-77
2022/07/25 11:42:05;;;;;;;7.43;6.72;;;36.50;98.70;;;;;;5089418;28;20550;-80
2022/07/25 11:44:37;;;;;;;7.65;7.03;;;36.30;97.90;;;;;;5097609;28;20188;-79
2022/07/25 11:47:10;;;;;;;7.18;6.47;;;36.10;97.50;;;;;;5089091;27;20230;-76
2022/07/25 11:49:45;;;;;;;7.18;6.57;;;36.10;98.00;;;;;;5085413;28;20221;-78
2022/07/25 11:52:25;;;;;;;7.53;6.82;;;36.40;98.30;;;;;;5087195;28;20229;-78
2022/07/25 11:54:54;;;;;;;7.18;6.50;;;36.40;97.00;;;;;;5096847;28;20193;-77
2022/07/25 11:57:23;;;;;;;6.82;6.25;;;36.40;97.30;;;;;;5077872;28;20229;-79
2022/07/25 11:59:51;;;;;;;8.35;6.57;;;36.50;96.50;;;;;;5070543;28;20245;-78
2022/07/25 12:02:24;;;;;;;7.53;6.82;;;36.60;96.80;;;;;;5063413;28;20226;-76
2022/07/25 12:04:56;;;;;;;7.30;6.70;;;36.70;95.80;;;;;;5072765;28;20197;-73
2022/07/25 12:07:39;;;;;;;7.97;7.28;;;36.60;95.90;;;;;;5070525;28;20712;-77
2022/07/25 12:10:09;;;;;;;7.13;6.50;;;36.60;94.70;;;;;;5068617;28;20636;-71
2022/07/25 12:12:44;;;;;;;7.47;6.68;;;36.60;95.50;;;;;;5073715;28;20218;-74
2022/07/25 12:15:13;;;;;;;6.60;6.00;;;36.90;94.90;;;;;;5068762;28;20682;-73
2022/07/25 12:17:42;;;;;;;7.10;6.53;;;37.10;94.40;;;;;;5069744;28;20231;-71
2022/07/25 12:20:18;;;;;;;7.13;6.47;;;37.10;94.10;;;;;;5066707;28;20304;-74
2022/07/25 12:22:48;;;;;;;6.93;6.38;;;37.30;94.00;;;;;;5069253;28;20930;-70
2022/07/25 12:25:16;;;;;;;8.50;6.20;;;37.50;94.10;;;;;;5075817;28;20194;-69
2022/07/25 12:27:45;;;;;;;6.88;6.20;;;37.60;93.80;;;;;;5075288;28;20232;-71
2022/07/25 12:30:16;;;;;;;7.05;6.35;;;37.60;93.30;;;;;;5080872;28;20228;-68
2022/07/25 12:32:44;;;;;;;6.25;5.75;;;37.70;92.80;;;;;;5068286;28;20611;-70
2022/07/25 12:35:14;;;;;;;5.90;5.47;;;37.60;92.40;;;;;;5076494;28;20250;-70
2022/07/25 12:37:43;;;;;;;7.13;6.38;;;37.70;92.40;;;;;;5076421;28;20883;-70
2022/07/25 12:40:13;;;;;;;7.75;6.32;;;37.80;92.60;;;;;;5075677;28;20213;-68
2022/07/25 12:42:41;;;;;;;6.35;5.85;;;37.70;91.40;;;;;;5077888;28;20220;-70
2022/07/25 12:45:10;;;;;;;6.13;5.63;;;37.60;91.10;;;;;;5074451;28;20198;-67
2022/07/25 12:47:38;;;;;;;6.20;5.80;;;37.70;91.40;;;;;;5076369;28;20246;-71
2022/07/25 12:50:08;;;;;;;9.13;6.63;;;37.80;90.80;;;;;;5078749;28;20228;-70
2022/07/25 12:52:36;;;;;;;8.43;6.50;;;37.70;90.40;;;;;;5070629;28;20723;-71